Terminal Aerodrome Forecast
Issued by NWS

Home | Current Version | Previous Version | Graphics & Text | Print | Product List | Glossary On
Versions: 1 2 3 4 5 6 7 8 9 10 11 12 13 14 15 16 17 18 19 20 21 22 23 24 25
710
FTUS43 KMPX 220411 AAC
TAFRWF
TAF AMD
KRWF 220411Z 2204/2224 03004KT 3/4SM BR FEW008 FEW035 OVC045
      TEMPO 2204/2208 3SM BR BKN020
     FM220800 VRB02KT 1/4SM FG VV001
     FM221300 16004KT 1SM BR VV004
     FM221400 16004KT 4SM BR BKN035
     FM221600 15005KT P6SM SCT070=

USA.gov is the U.S. government's official web portal to all federal, state and local government web resources and services.